createdAt,value
2019-02-24T00:01:03.927Z,13.27
2019-02-24T00:11:09.902Z,10.93
2019-02-24T00:21:17.863Z,11.40
2019-02-24T00:31:23.633Z,8.97
2019-02-24T00:41:29.830Z,11.73
2019-02-24T00:51:35.557Z,10.40
2019-02-24T01:01:41.352Z,9.90
2019-02-24T01:11:47.047Z,11.00
2019-02-24T01:21:53.017Z,8.37
2019-02-24T01:31:59.406Z,11.80
2019-02-24T01:42:05.285Z,10.60
2019-02-24T01:52:11.220Z,9.20
2019-02-24T02:02:16.899Z,9.70
2019-02-24T02:12:22.696Z,13.10
2019-02-24T02:22:28.388Z,12.07
2019-02-24T02:32:34.317Z,9.60
2019-02-24T02:42:40.250Z,12.40
2019-02-24T02:52:46.010Z,12.50
2019-02-24T03:02:51.939Z,8.40
2019-02-24T03:12:57.706Z,9.37
2019-02-24T03:23:03.436Z,7.37
2019-02-24T03:33:09.226Z,8.00
2019-02-24T03:43:16.403Z,10.40
2019-02-24T03:53:22.168Z,9.27
2019-02-24T04:03:27.911Z,11.97
2019-02-24T04:13:33.657Z,6.90
2019-02-24T04:23:39.461Z,10.97
2019-02-24T04:33:45.322Z,8.80
2019-02-24T04:43:50.970Z,11.37
2019-02-24T04:53:56.824Z,12.30
2019-02-24T05:04:02.470Z,10.20
2019-02-24T05:14:08.169Z,8.60
2019-02-24T05:24:15.912Z,9.33
2019-02-24T05:34:21.735Z,10.30
2019-02-24T05:44:27.582Z,9.50
2019-02-24T05:54:33.335Z,11.17
2019-02-24T06:04:39.020Z,10.03
2019-02-24T06:14:45.337Z,12.70
2019-02-24T06:24:51.694Z,12.87
2019-02-24T06:34:57.466Z,11.07
2019-02-24T06:45:03.564Z,11.30
2019-02-24T06:55:09.654Z,13.30
2019-02-24T07:05:15.486Z,12.37
2019-02-24T07:15:21.381Z,11.27
2019-02-24T07:25:27.088Z,12.67
2019-02-24T07:35:32.810Z,10.47
2019-02-24T07:45:38.594Z,10.77
2019-02-24T07:55:44.656Z,12.70
2019-02-24T08:05:50.408Z,13.03
2019-02-24T08:15:56.214Z,11.40
2019-02-24T08:26:01.936Z,11.90
2019-02-24T08:36:09.366Z,14.10
2019-02-24T08:46:15.273Z,14.43
2019-02-24T08:56:21.124Z,13.17
2019-02-24T09:06:26.859Z,12.40
2019-02-24T09:16:32.664Z,12.57
2019-02-24T09:26:38.464Z,12.47
2019-02-24T09:36:44.370Z,9.77
2019-02-24T09:46:50.195Z,10.83
2019-02-24T09:56:56.456Z,11.33
2019-02-24T10:07:02.619Z,7.27
2019-02-24T10:17:08.785Z,9.97
2019-02-24T10:27:14.525Z,10.50
2019-02-24T10:37:20.485Z,8.90
2019-02-24T10:47:26.428Z,8.23
2019-02-24T10:57:32.530Z,9.47
2019-02-24T11:07:38.357Z,8.00
2019-02-24T11:17:44.146Z,7.60
2019-02-24T11:27:49.942Z,8.37
2019-02-24T11:37:55.650Z,10.03
2019-02-24T11:48:01.609Z,9.50
2019-02-24T11:58:07.440Z,9.43
2019-02-24T12:08:13.270Z,11.13
2019-02-24T12:18:19.086Z,11.20
2019-02-24T12:28:25.078Z,10.37
2019-02-24T12:38:30.783Z,10.70
2019-02-24T12:48:36.906Z,9.00
2019-02-24T12:58:42.930Z,10.53
2019-02-24T13:08:50.397Z,10.47
2019-02-24T13:18:56.308Z,9.50
2019-02-24T13:29:02.146Z,8.90
2019-02-24T13:39:09.950Z,7.27
2019-02-24T13:49:15.830Z,8.53
2019-02-24T13:59:27.036Z,8.73
2019-02-24T14:09:33.705Z,7.60
2019-02-24T14:19:42.109Z,8.57
2019-02-24T14:29:47.816Z,11.40
2019-02-24T14:39:53.872Z,8.33
2019-02-24T14:49:59.729Z,9.50
2019-02-24T15:00:13.827Z,8.70
2019-02-24T15:10:21.957Z,6.77
2019-02-24T15:20:28.837Z,8.40
2019-02-24T15:30:36.916Z,8.70
2019-02-24T15:40:42.696Z,7.70
2019-02-24T15:50:48.680Z,9.50
2019-02-24T16:00:55.342Z,8.63
2019-02-24T16:11:01.420Z,8.20
2019-02-24T16:21:07.395Z,8.63
2019-02-24T16:31:13.507Z,8.00
2019-02-24T16:41:19.341Z,7.63
2019-02-24T16:51:25.141Z,10.40
2019-02-24T17:01:31.081Z,7.67
2019-02-24T17:11:37.159Z,9.60
2019-02-24T17:21:43.072Z,9.93
2019-02-24T17:31:48.815Z,8.47
2019-02-24T17:41:56.500Z,10.13
2019-02-24T17:52:02.371Z,7.43
2019-02-24T18:02:08.730Z,7.87
2019-02-24T18:12:16.071Z,6.97
2019-02-24T18:22:21.759Z,8.03
2019-02-24T18:32:27.683Z,9.47
2019-02-24T18:42:33.895Z,9.37
2019-02-24T18:52:39.898Z,10.10
2019-02-24T19:02:45.587Z,9.10
2019-02-24T19:12:51.325Z,9.30
2019-02-24T19:22:58.718Z,9.40
2019-02-24T19:33:04.881Z,10.93
2019-02-24T19:43:12.498Z,9.67
2019-02-24T19:53:19.839Z,9.33
2019-02-24T20:03:26.565Z,9.73
2019-02-24T20:13:34.189Z,11.17
2019-02-24T20:23:41.461Z,11.97
2019-02-24T20:33:47.848Z,11.00
2019-02-24T20:43:53.886Z,12.33
2019-02-24T20:53:59.809Z,14.17
2019-02-24T21:04:06.048Z,12.90
2019-02-24T21:14:11.822Z,12.30
2019-02-24T21:24:19.057Z,14.10
2019-02-24T21:34:24.820Z,13.80
2019-02-24T21:44:30.735Z,16.40
2019-02-24T21:54:37.421Z,15.90
2019-02-24T22:04:43.360Z,16.40
2019-02-24T22:14:49.265Z,16.37
2019-02-24T22:24:55.617Z,19.13
2019-02-24T22:35:01.394Z,19.73
2019-02-24T22:45:10.424Z,23.47
2019-02-24T22:55:19.937Z,21.73
2019-02-24T23:05:25.862Z,18.20
2019-02-24T23:15:31.784Z,20.97
2019-02-24T23:25:37.477Z,25.20
2019-02-24T23:35:43.274Z,26.67
2019-02-24T23:45:49.170Z,24.53
2019-02-24T23:55:55.175Z,30.93
